Time;durP1;ratioP1;P1;durP2;ratioP2;P2;SDS_P1;SDS_P2;PMS_P1;PMS_P2;Temp;Humidity;BMP_temperature;BMP_pressure;BME280_temperature;BME280_humidity;BME280_pressure;Samples;Min_cycle;Max_cycle;Signal;HPM_P1;HPM_P2
2023/05/28 00:01:13;;;;;;;0.28;0.28;;;14.30;99.90;;;;;;5037577;28;20030;-75
2023/05/28 00:03:43;;;;;;;0.25;0.25;;;14.00;99.90;;;;;;5026052;28;20068;-75
2023/05/28 00:06:09;;;;;;;0.45;0.45;;;14.20;99.90;;;;;;5046756;28;20029;-75
2023/05/28 00:08:35;;;;;;;0.13;0.13;;;14.20;99.90;;;;;;5035398;28;20060;-75
2023/05/28 00:11:03;;;;;;;0.10;0.10;;;14.10;99.90;;;;;;5045061;28;20026;-75
2023/05/28 00:13:32;;;;;;;0.47;0.47;;;14.10;99.90;;;;;;5038438;28;20059;-75
2023/05/28 00:15:59;;;;;;;0.20;0.20;;;14.10;99.90;;;;;;5046699;28;20106;-76
2023/05/28 00:19:02;;;;;;;0.10;0.10;;;14.00;99.90;;;;;;5035791;28;20057;-76
2023/05/28 00:21:32;;;;;;;0.10;0.10;;;14.10;99.90;;;;;;5021050;28;20057;-75
2023/05/28 00:24:05;;;;;;;0.47;0.47;;;14.00;99.90;;;;;;5037854;28;20449;-76
2023/05/28 00:26:56;;;;;;;0.20;0.20;;;14.00;99.90;;;;;;5048789;28;20037;-76
2023/05/28 00:29:38;;;;;;;0.25;0.25;;;14.00;99.90;;;;;;5044316;28;20461;-75
2023/05/28 00:32:04;;;;;;;0.10;0.10;;;14.00;99.90;;;;;;5078359;28;20017;-76
2023/05/28 00:34:46;;;;;;;0.20;0.20;;;14.40;99.90;;;;;;5086516;28;20038;-76
2023/05/28 00:37:12;;;;;;;0.15;0.15;;;14.00;99.90;;;;;;5090353;28;20078;-76
2023/05/28 00:39:37;;;;;;;0.30;0.30;;;14.00;99.90;;;;;;5068598;28;20007;-75
2023/05/28 00:42:32;;;;;;;0.20;0.20;;;14.00;99.90;;;;;;5079054;28;20032;-79
2023/05/28 00:44:57;;;;;;;;;;;14.00;99.90;;;;;;5054225;28;20514;-76
2023/05/28 00:47:33;;;;;;;0.10;0.10;;;13.90;99.90;;;;;;5073855;28;19948;-78
2023/05/28 00:50:01;;;;;;;0.10;0.10;;;13.80;99.90;;;;;;5071174;28;20031;-75
2023/05/28 00:52:27;;;;;;;0.10;0.10;;;13.90;99.90;;;;;;5037673;28;20033;-76
2023/05/28 00:54:55;;;;;;;0.10;0.10;;;13.90;99.90;;;;;;5032867;28;20317;-75
2023/05/28 00:57:23;;;;;;;0.20;0.20;;;13.90;99.90;;;;;;5024086;28;20025;-75
2023/05/28 01:00:13;;;;;;;0.22;0.22;;;13.90;99.90;;;;;;5026175;28;20071;-81
2023/05/28 01:02:41;;;;;;;0.10;0.10;;;13.90;99.90;;;;;;5044901;28;20025;-76
2023/05/28 01:05:08;;;;;;;0.20;0.20;;;13.90;99.90;;;;;;5031572;28;20055;-76
2023/05/28 01:07:56;;;;;;;0.10;0.10;;;10.70;99.90;;;;;;5047240;28;20021;-78
2023/05/28 01:10:22;;;;;;;0.20;0.20;;;13.80;99.90;;;;;;5030532;28;20033;-76
2023/05/28 01:13:18;;;;;;;0.15;0.15;;;13.70;99.90;;;;;;5049538;28;20029;-76
2023/05/28 01:15:44;;;;;;;0.20;0.20;;;13.80;99.90;;;;;;5051289;28;20029;-76
2023/05/28 01:18:13;;;;;;;0.20;0.20;;;13.70;99.90;;;;;;5055320;28;20111;-77
2023/05/28 01:20:38;;;;;;;0.10;0.10;;;13.70;99.90;;;;;;5029235;28;20335;-75
2023/05/28 01:23:12;;;;;;;0.10;0.10;;;13.70;99.90;;;;;;5038605;28;20109;-77
2023/05/28 01:25:38;;;;;;;2.92;2.72;;;13.70;99.90;;;;;;5044559;28;20021;-81
2023/05/28 01:28:22;;;;;;;0.20;0.20;;;13.70;99.90;;;;;;5026749;28;20060;-75
2023/05/28 01:30:47;;;;;;;0.20;0.20;;;13.70;99.90;;;;;;5053066;28;20019;-76
2023/05/28 01:33:24;;;;;;;2.58;2.47;;;13.80;99.90;;;;;;5046598;28;20025;-76
2023/05/28 01:36:00;;;;;;;0.20;0.20;;;13.80;99.90;;;;;;5062956;28;20044;-79
2023/05/28 01:38:27;;;;;;;0.10;0.10;;;13.80;99.90;;;;;;5038454;28;20066;-75
2023/05/28 01:40:55;;;;;;;0.15;0.15;;;13.80;99.90;;;;;;5034649;28;20322;-75
2023/05/28 01:43:21;;;;;;;0.10;0.10;;;13.80;99.90;;;;;;5037569;28;20214;-77
2023/05/28 01:45:47;;;;;;;0.20;0.20;;;13.70;99.90;;;;;;5046106;28;20330;-76
2023/05/28 01:48:13;;;;;;;0.95;0.95;;;13.70;99.90;;;;;;5042902;28;20397;-79
2023/05/28 01:50:39;;;;;;;0.90;0.90;;;13.60;99.90;;;;;;5052779;28;20325;-76
2023/05/28 01:53:05;;;;;;;0.10;0.10;;;13.60;99.90;;;;;;5036698;28;20052;-84
2023/05/28 01:55:32;;;;;;;0.20;0.20;;;13.70;99.90;;;;;;5068677;28;20198;-83
2023/05/28 01:57:59;;;;;;;0.20;0.20;;;13.70;99.90;;;;;;5080187;28;20746;-82
2023/05/28 02:00:26;;;;;;;0.20;0.20;;;13.70;99.90;;;;;;5063977;28;20402;-85
2023/05/28 02:03:13;;;;;;;0.20;0.20;;;13.70;99.90;;;;;;5082246;28;20032;-80
2023/05/28 02:05:40;;;;;;;0.43;0.43;;;13.80;99.90;;;;;;5041443;28;20020;-78
2023/05/28 02:08:05;;;;;;;0.20;0.20;;;13.80;99.90;;;;;;5072046;28;20084;-79
2023/05/28 02:10:32;;;;;;;0.20;0.20;;;13.70;99.90;;;;;;5073660;28;20556;-80
2023/05/28 02:13:00;;;;;;;0.20;0.20;;;13.70;99.90;;;;;;5069398;28;20017;-83
2023/05/28 02:15:26;;;;;;;0.10;0.10;;;13.70;99.90;;;;;;5064113;28;20521;-76
2023/05/28 02:17:58;;;;;;;0.15;0.15;;;13.60;99.90;;;;;;5045819;28;20648;-79
2023/05/28 02:20:25;;;;;;;0.50;0.50;;;13.50;99.90;;;;;;5075517;28;20506;-77
2023/05/28 02:22:51;;;;;;;0.85;0.85;;;13.50;99.90;;;;;;5043158;28;20020;-76
2023/05/28 02:25:20;;;;;;;0.20;0.20;;;13.50;99.90;;;;;;5064679;28;20024;-76
2023/05/28 02:27:46;;;;;;;0.20;0.20;;;11.20;99.90;;;;;;5062167;28;20090;-75
2023/05/28 02:30:14;;;;;;;0.20;0.20;;;13.40;99.90;;;;;;5042457;28;20040;-80
2023/05/28 02:32:39;;;;;;;0.20;0.20;;;13.00;99.90;;;;;;5042678;28;20021;-76
2023/05/28 02:35:06;;;;;;;0.20;0.20;;;13.30;99.90;;;;;;5041859;28;20464;-76
2023/05/28 02:37:32;;;;;;;0.10;0.10;;;13.40;99.90;;;;;;5041414;28;20321;-79
2023/05/28 02:39:57;;;;;;;0.13;0.13;;;13.40;99.90;;;;;;5065449;28;20051;-80
2023/05/28 02:42:23;;;;;;;0.10;0.10;;;13.50;99.90;;;;;;5064065;28;20028;-81
2023/05/28 02:44:49;;;;;;;0.52;0.52;;;13.50;99.90;;;;;;5045201;28;20100;-76
2023/05/28 02:47:15;;;;;;;0.28;0.28;;;13.60;99.90;;;;;;5047272;28;20119;-79
2023/05/28 02:49:41;;;;;;;0.10;0.10;;;13.60;99.90;;;;;;5051495;28;20031;-77
2023/05/28 02:52:06;;;;;;;0.10;0.10;;;13.60;99.90;;;;;;5046846;28;20024;-76
2023/05/28 02:54:32;;;;;;;0.20;0.20;;;13.60;99.90;;;;;;5058235;28;20052;-80
2023/05/28 02:57:00;;;;;;;0.10;0.10;;;10.40;99.90;;;;;;5083282;28;20049;-76
2023/05/28 02:59:29;;;;;;;6.60;6.13;;;13.70;99.90;;;;;;5053157;28;20036;-81
2023/05/28 03:01:55;;;;;;;0.15;0.15;;;13.70;99.90;;;;;;5040243;28;20048;-82
2023/05/28 03:04:23;;;;;;;0.20;0.20;;;13.80;99.90;;;;;;5062826;28;20066;-78
2023/05/28 03:06:48;;;;;;;0.10;0.10;;;13.80;99.90;;;;;;5053972;28;20448;-78
2023/05/28 03:09:19;;;;;;;0.10;0.10;;;13.80;99.90;;;;;;5053587;28;20028;-83
2023/05/28 03:11:45;;;;;;;0.20;0.20;;;13.80;99.90;;;;;;5051913;28;20454;-80
2023/05/28 03:14:13;;;;;;;0.82;0.82;;;13.80;99.90;;;;;;5069673;28;20095;-82
2023/05/28 03:16:40;;;;;;;0.40;0.40;;;13.90;99.90;;;;;;5069801;28;20037;-81
2023/05/28 03:19:06;;;;;;;0.10;0.10;;;13.80;99.90;;;;;;5070734;28;20013;-82
2023/05/28 03:21:32;;;;;;;0.20;0.20;;;13.90;99.90;;;;;;5077235;28;20283;-78
2023/05/28 03:23:57;;;;;;;0.10;0.10;;;14.30;99.90;;;;;;5064702;28;20213;-81
2023/05/28 03:26:25;;;;;;;0.20;0.20;;;13.90;99.90;;;;;;5057544;28;20024;-88
2023/05/28 03:28:52;;;;;;;0.38;0.38;;;13.90;99.90;;;;;;5069051;28;20032;-81
2023/05/28 03:31:25;;;;;;;0.20;0.20;;;13.90;99.90;;;;;;5068930;28;20055;-81
2023/05/28 03:33:51;;;;;;;0.20;0.20;;;13.90;99.90;;;;;;5031958;28;20028;-79
2023/05/28 03:36:17;;;;;;;0.20;0.20;;;13.90;99.90;;;;;;5044823;28;20100;-78
2023/05/28 03:38:47;;;;;;;1.98;1.88;;;13.90;99.90;;;;;;5044013;28;20519;-81
2023/05/28 03:41:14;;;;;;;0.10;0.10;;;13.90;99.90;;;;;;5063439;28;20024;-77
2023/05/28 03:43:40;;;;;;;0.75;0.75;;;14.00;99.90;;;;;;5062537;28;20048;-77
2023/05/28 03:46:06;;;;;;;0.10;0.10;;;13.90;99.90;;;;;;5066202;28;20078;-77
2023/05/28 03:48:34;;;;;;;0.10;0.10;;;14.00;99.90;;;;;;5044653;28;20040;-78
2023/05/28 03:51:00;;;;;;;0.10;0.10;;;14.00;99.90;;;;;;5072669;28;20023;-79
2023/05/28 03:53:26;;;;;;;0.45;0.45;;;14.00;99.90;;;;;;5033077;28;20128;-78
2023/05/28 03:55:51;;;;;;;0.10;0.10;;;14.00;99.90;;;;;;5029113;28;20036;-77
2023/05/28 03:58:18;;;;;;;0.10;0.10;;;14.00;99.90;;;;;;5044439;28;20081;-78
2023/05/28 04:00:43;;;;;;;0.10;0.10;;;14.10;99.90;;;;;;5029473;28;20029;-78
2023/05/28 04:03:09;;;;;;;0.10;0.10;;;14.10;99.90;;;;;;5054228;28;20483;-79
2023/05/28 04:05:41;;;;;;;0.13;0.13;;;14.10;99.90;;;;;;5049681;28;20229;-82
2023/05/28 04:08:06;;;;;;;0.20;0.20;;;14.10;99.90;;;;;;5026809;28;20033;-83
2023/05/28 04:10:32;;;;;;;0.20;0.20;;;14.10;99.90;;;;;;5052128;28;20102;-79
2023/05/28 04:12:59;;;;;;;0.13;0.13;;;14.20;99.90;;;;;;5055097;28;20168;-89
2023/05/28 04:15:25;;;;;;;0.10;0.10;;;14.20;99.90;;;;;;5043896;28;20036;-93
2023/05/28 04:17:51;;;;;;;0.43;0.43;;;14.20;99.90;;;;;;5053836;28;20016;-92
2023/05/28 04:20:16;;;;;;;0.20;0.20;;;14.20;99.90;;;;;;5051884;28;20025;-77
2023/05/28 04:22:42;;;;;;;0.17;0.17;;;14.10;99.90;;;;;;5028290;28;20036;-79
2023/05/28 04:25:08;;;;;;;5.82;3.50;;;14.30;99.90;;;;;;5042192;28;20021;-75
2023/05/28 04:27:34;;;;;;;0.10;0.10;;;14.30;99.90;;;;;;5023375;28;20116;-80
2023/05/28 04:30:00;;;;;;;0.10;0.10;;;14.40;99.90;;;;;;5043045;28;20108;-93
2023/05/28 04:32:27;;;;;;;0.10;0.10;;;14.40;99.90;;;;;;5043274;28;20025;-86
2023/05/28 04:34:54;;;;;;;0.15;0.15;;;14.40;99.90;;;;;;5025497;28;20124;-89
2023/05/28 04:37:21;;;;;;;0.10;0.10;;;14.50;99.90;;;;;;5042595;28;20120;-86
2023/05/28 04:39:48;;;;;;;0.10;0.10;;;14.60;99.90;;;;;;5042487;28;20219;-91
2023/05/28 04:42:16;;;;;;;0.75;0.75;;;14.60;99.90;;;;;;5043209;28;20120;-85
2023/05/28 04:44:43;;;;;;;2.53;2.35;;;14.70;99.90;;;;;;5040272;28;20621;-75
2023/05/28 04:47:09;;;;;;;0.20;0.20;;;14.80;99.90;;;;;;5024351;28;20063;-85
2023/05/28 04:49:35;;;;;;;0.10;0.10;;;14.80;99.90;;;;;;5042865;28;20048;-89
2023/05/28 04:52:00;;;;;;;0.10;0.10;;;14.80;99.90;;;;;;5044246;28;20055;-84
2023/05/28 04:54:26;;;;;;;0.13;0.13;;;14.80;99.90;;;;;;5051905;28;20044;-76
2023/05/28 04:56:52;;;;;;;0.20;0.20;;;14.90;99.90;;;;;;5067247;28;20771;-76
2023/05/28 04:59:18;;;;;;;0.20;0.20;;;14.90;99.90;;;;;;5070138;28;20047;-84
2023/05/28 05:01:44;;;;;;;0.20;0.20;;;14.90;99.90;;;;;;5075381;28;20081;-84
2023/05/28 05:04:10;;;;;;;0.35;0.35;;;14.90;99.90;;;;;;5071654;28;20528;-76
2023/05/28 05:06:35;;;;;;;3.40;3.25;;;15.20;99.90;;;;;;5071970;28;20035;-93
2023/05/28 05:09:02;;;;;;;0.30;0.30;;;15.00;99.90;;;;;;5064976;28;20213;-85
2023/05/28 05:11:27;;;;;;;0.13;0.13;;;15.00;99.90;;;;;;5065282;28;20040;-85
2023/05/28 05:13:53;;;;;;;0.20;0.20;;;15.10;99.90;;;;;;5071542;28;20020;-87
2023/05/28 05:16:20;;;;;;;1.05;1.05;;;15.10;99.90;;;;;;5081422;28;20020;-89
2023/05/28 05:18:47;;;;;;;0.90;0.90;;;14.60;99.90;;;;;;5069622;28;20115;-77
2023/05/28 05:21:13;;;;;;;9.95;4.57;;;15.30;99.90;;;;;;5061112;28;20130;-89
2023/05/28 05:23:40;;;;;;;6.88;3.40;;;15.30;99.90;;;;;;5065651;28;20571;-83
2023/05/28 05:26:09;;;;;;;1.05;1.05;;;15.30;99.90;;;;;;5062587;28;20550;-77
2023/05/28 05:28:36;;;;;;;1.30;1.25;;;16.00;99.90;;;;;;5045224;28;20229;-76
2023/05/28 05:31:02;;;;;;;0.35;0.35;;;15.40;99.90;;;;;;5046188;28;20062;-84
2023/05/28 05:33:27;;;;;;;0.10;0.10;;;15.50;99.90;;;;;;5065166;28;20041;-85
2023/05/28 05:35:53;;;;;;;0.10;0.10;;;14.80;99.90;;;;;;5061560;28;20036;-76
2023/05/28 05:38:19;;;;;;;3.03;2.78;;;15.50;99.90;;;;;;5042368;28;20035;-78
2023/05/28 05:40:44;;;;;;;0.20;0.20;;;15.50;99.90;;;;;;5063363;28;20430;-86
2023/05/28 05:43:10;;;;;;;0.30;0.30;;;15.60;99.90;;;;;;5062360;28;20652;-75
2023/05/28 05:45:36;;;;;;;2.97;2.78;;;15.60;99.90;;;;;;5042580;28;20065;-76
2023/05/28 05:48:02;;;;;;;0.40;0.40;;;15.60;99.90;;;;;;5061517;28;20028;-76
2023/05/28 05:50:28;;;;;;;3.15;2.95;;;15.90;99.90;;;;;;5061759;28;20604;-76
2023/05/28 05:52:54;;;;;;;0.40;0.40;;;15.70;99.90;;;;;;5062254;28;20555;-76
2023/05/28 05:55:21;;;;;;;0.55;0.55;;;15.60;99.90;;;;;;5060566;28;20036;-75
2023/05/28 05:57:49;;;;;;;2.22;2.08;;;15.80;99.90;;;;;;5059498;28;20089;-80
2023/05/28 06:00:15;;;;;;;0.30;0.30;;;15.60;99.90;;;;;;5032247;28;20017;-79
2023/05/28 06:02:41;;;;;;;0.20;0.20;;;15.70;99.90;;;;;;5065347;28;20021;-85
2023/05/28 06:05:07;;;;;;;0.30;0.30;;;15.80;99.90;;;;;;5043459;28;20024;-75
2023/05/28 06:07:32;;;;;;;0.75;0.75;;;15.30;99.90;;;;;;5043754;28;20384;-79
2023/05/28 06:09:58;;;;;;;1.25;1.20;;;15.80;99.90;;;;;;5063287;28;20021;-86
2023/05/28 06:12:25;;;;;;;0.10;0.10;;;15.80;99.90;;;;;;5025906;28;20499;-76
2023/05/28 06:14:51;;;;;;;0.20;0.20;;;15.90;99.90;;;;;;5040596;28;20087;-76
2023/05/28 06:17:16;;;;;;;0.10;0.10;;;15.90;99.90;;;;;;5041083;28;20712;-84
2023/05/28 06:19:42;;;;;;;0.10;0.10;;;16.10;99.90;;;;;;5042061;28;20020;-81
2023/05/28 06:22:10;;;;;;;0.17;0.17;;;16.20;99.90;;;;;;5076430;28;20502;-82
2023/05/28 06:24:38;;;;;;;0.20;0.20;;;16.20;99.90;;;;;;5067130;28;20021;-85
2023/05/28 06:27:04;;;;;;;0.32;0.32;;;16.30;99.90;;;;;;5041634;28;20056;-83
2023/05/28 06:29:30;;;;;;;0.17;0.17;;;16.50;99.90;;;;;;5058382;28;20028;-75
2023/05/28 06:31:56;;;;;;;0.10;0.10;;;16.50;99.90;;;;;;5046899;28;20032;-85
2023/05/28 06:34:22;;;;;;;0.15;0.15;;;16.60;99.90;;;;;;5059245;28;20024;-77
2023/05/28 06:36:48;;;;;;;0.20;0.20;;;16.70;99.90;;;;;;5062405;28;20029;-87
2023/05/28 06:39:15;;;;;;;0.20;0.20;;;16.70;99.90;;;;;;5059410;28;20270;-89
2023/05/28 06:41:44;;;;;;;0.40;0.40;;;15.20;99.90;;;;;;5062710;28;20403;-77
2023/05/28 06:44:29;;;;;;;0.10;0.10;;;16.80;99.90;;;;;;5020224;28;20235;-77
2023/05/28 06:46:55;;;;;;;0.20;0.20;;;16.20;99.90;;;;;;5018060;28;20072;-75
2023/05/28 06:49:30;;;;;;;0.57;0.57;;;16.90;99.90;;;;;;5032367;28;20029;-78
2023/05/28 06:52:10;;;;;;;1.65;1.30;;;16.90;99.90;;;;;;5039285;28;20173;-76
2023/05/28 06:54:39;;;;;;;0.10;0.10;;;16.90;99.90;;;;;;5019591;28;20052;-78
2023/05/28 06:57:06;;;;;;;0.20;0.20;;;16.90;99.90;;;;;;5017500;28;20535;-78
2023/05/28 06:59:37;;;;;;;0.25;0.25;;;;;;;;;;5024749;28;20045;-78
2023/05/28 07:02:41;;;;;;;1.42;1.33;;;17.00;99.90;;;;;;5012504;28;20037;-79
2023/05/28 07:05:17;;;;;;;0.10;0.10;;;17.50;99.90;;;;;;5010131;28;20046;-76
2023/05/28 07:07:43;;;;;;;0.10;0.10;;;16.50;99.90;;;;;;5024521;28;20523;-77
2023/05/28 07:10:10;;;;;;;0.10;0.10;;;17.00;99.90;;;;;;5023905;28;20041;-77
2023/05/28 07:12:38;;;;;;;0.20;0.20;;;15.50;99.90;;;;;;5022558;28;20049;-77
2023/05/28 07:15:06;;;;;;;0.15;0.15;;;17.10;99.90;;;;;;5040834;28;20059;-77
2023/05/28 07:17:35;;;;;;;0.30;0.30;;;17.20;99.90;;;;;;5074478;28;20052;-77
2023/05/28 07:20:21;;;;;;;0.20;0.20;;;17.30;99.90;;;;;;5070069;28;20070;-77
2023/05/28 07:22:52;;;;;;;1.25;1.20;;;17.50;99.90;;;;;;5063772;28;20039;-77
2023/05/28 07:25:22;;;;;;;0.20;0.20;;;16.30;99.90;;;;;;5061684;28;20023;-77
2023/05/28 07:27:48;;;;;;;1.13;1.13;;;17.70;99.90;;;;;;5053438;28;20507;-77
2023/05/28 07:30:13;;;;;;;0.20;0.20;;;17.80;99.90;;;;;;5051887;28;20067;-78
2023/05/28 07:32:40;;;;;;;0.40;0.40;;;18.00;99.90;;;;;;5054411;28;20043;-77
2023/05/28 07:35:06;;;;;;;0.82;0.82;;;18.20;99.90;;;;;;5068816;28;20020;-77
2023/05/28 07:37:32;;;;;;;0.30;0.30;;;18.10;99.90;;;;;;5067332;28;20025;-82
2023/05/28 07:39:58;;;;;;;0.22;0.22;;;18.30;99.90;;;;;;5061697;28;20406;-74
2023/05/28 07:42:24;;;;;;;0.63;0.63;;;18.40;99.90;;;;;;5058793;28;20642;-82
2023/05/28 07:44:49;;;;;;;0.10;0.10;;;18.70;99.90;;;;;;5059674;28;20064;-83
2023/05/28 07:47:15;;;;;;;0.65;0.65;;;18.90;99.90;;;;;;5058874;28;20048;-74
2023/05/28 07:49:41;;;;;;;0.10;0.10;;;19.00;99.90;;;;;;5058639;28;20275;-76
2023/05/28 07:52:07;;;;;;;0.10;0.10;;;19.20;99.90;;;;;;5063637;28;20023;-76
2023/05/28 07:54:34;;;;;;;0.40;0.40;;;19.50;99.90;;;;;;5061830;28;20028;-76
2023/05/28 07:57:00;;;;;;;0.10;0.10;;;19.50;99.90;;;;;;5061343;28;20040;-79
2023/05/28 07:59:26;;;;;;;0.20;0.20;;;19.20;99.90;;;;;;5063428;28;20017;-76
2023/05/28 08:01:52;;;;;;;1.95;1.85;;;19.20;99.90;;;;;;5063324;28;20024;-76
2023/05/28 08:04:18;;;;;;;0.20;0.20;;;19.20;99.90;;;;;;5064923;28;20016;-76
2023/05/28 08:06:46;;;;;;;0.40;0.40;;;19.20;99.90;;;;;;5062054;28;20028;-78
2023/05/28 08:09:15;;;;;;;0.40;0.40;;;19.20;99.90;;;;;;5063174;28;20072;-76
2023/05/28 08:11:41;;;;;;;0.10;0.10;;;19.20;99.90;;;;;;5061807;28;20582;-73
2023/05/28 08:14:06;;;;;;;0.10;0.10;;;19.30;99.90;;;;;;5063191;28;20082;-79
2023/05/28 08:16:32;;;;;;;0.17;0.17;;;19.30;99.90;;;;;;5067439;28;20361;-76
2023/05/28 08:18:58;;;;;;;0.20;0.20;;;19.10;99.90;;;;;;5060366;28;20552;-76
2023/05/28 08:21:24;;;;;;;1.40;1.40;;;18.90;99.90;;;;;;5032226;28;20033;-75
2023/05/28 08:23:49;;;;;;;0.10;0.10;;;18.80;99.90;;;;;;5042559;28;20664;-77
2023/05/28 08:26:15;;;;;;;0.10;0.10;;;18.70;99.90;;;;;;5023014;28;20029;-74
2023/05/28 08:28:41;;;;;;;1.58;1.33;;;18.60;99.90;;;;;;5041506;28;20287;-77
2023/05/28 08:31:07;;;;;;;0.10;0.10;;;18.60;99.90;;;;;;5042367;28;20025;-83
2023/05/28 08:33:32;;;;;;;0.25;0.25;;;20.30;99.90;;;;;;5045281;28;20044;-88
2023/05/28 08:36:01;;;;;;;1.17;1.17;;;17.80;99.90;;;;;;5043605;28;20025;-86
2023/05/28 08:38:29;;;;;;;0.10;0.10;;;18.90;99.90;;;;;;5045278;28;20017;-86
2023/05/28 08:40:56;;;;;;;0.13;0.13;;;19.10;99.90;;;;;;5043486;28;20016;-90
2023/05/28 08:43:22;;;;;;;0.30;0.30;;;19.30;99.90;;;;;;5046731;28;20090;-92
2023/05/28 08:45:52;;;;;;;0.35;0.35;;;19.40;99.90;;;;;;5042231;28;20083;-86
2023/05/28 08:48:18;;;;;;;0.20;0.20;;;19.30;99.90;;;;;;5042463;28;20275;-79
2023/05/28 08:50:48;;;;;;;0.10;0.10;;;19.30;99.90;;;;;;5023491;28;20578;-92
2023/05/28 08:53:22;;;;;;;0.82;0.82;;;19.50;99.90;;;;;;5059780;28;20044;-79
2023/05/28 08:55:49;;;;;;;0.65;0.65;;;19.40;99.90;;;;;;5045059;28;20184;-77
2023/05/28 08:58:17;;;;;;;0.43;0.43;;;19.60;99.90;;;;;;5064752;28;20020;-76
2023/05/28 09:00:43;;;;;;;0.20;0.20;;;19.50;99.90;;;;;;5063754;28;20035;-76
2023/05/28 09:03:09;;;;;;;0.57;0.57;;;19.50;99.90;;;;;;5063034;28;20812;-76
2023/05/28 09:05:38;;;;;;;0.68;0.68;;;19.80;99.90;;;;;;5062877;28;20028;-75
2023/05/28 09:08:12;;;;;;;0.10;0.10;;;18.60;99.90;;;;;;5062685;28;20055;-88
2023/05/28 09:10:39;;;;;;;0.10;0.10;;;20.20;99.90;;;;;;5060002;28;20028;-75
2023/05/28 09:13:05;;;;;;;0.15;0.15;;;20.30;99.90;;;;;;5061963;28;20040;-92
2023/05/28 09:15:31;;;;;;;0.25;0.25;;;20.40;99.90;;;;;;5065102;28;20016;-84
2023/05/28 09:18:00;;;;;;;0.10;0.10;;;20.50;99.90;;;;;;5062805;28;20021;-86
2023/05/28 09:20:27;;;;;;;0.10;0.10;;;20.60;99.90;;;;;;5060436;28;20016;-74
2023/05/28 09:23:03;;;;;;;0.30;0.30;;;20.60;99.90;;;;;;5060240;28;20502;-74
2023/05/28 09:25:32;;;;;;;0.55;0.55;;;20.40;99.90;;;;;;5060707;28;20060;-73
2023/05/28 09:28:00;;;;;;;0.20;0.20;;;20.50;99.90;;;;;;5066075;28;20029;-79
2023/05/28 09:30:27;;;;;;;0.52;0.50;;;20.80;99.90;;;;;;5061612;28;20077;-76
2023/05/28 09:32:57;;;;;;;0.20;0.20;;;20.60;99.90;;;;;;5067284;28;20017;-87
2023/05/28 09:35:26;;;;;;;0.63;0.63;;;20.70;99.90;;;;;;5067006;28;20021;-75
2023/05/28 09:38:08;;;;;;;0.17;0.17;;;20.70;99.90;;;;;;5067558;28;20044;-79
2023/05/28 09:40:43;;;;;;;2.25;2.15;;;20.60;99.90;;;;;;5077537;28;20027;-85
2023/05/28 09:43:10;;;;;;;1.50;1.40;;;20.60;99.90;;;;;;5082269;28;20024;-84
2023/05/28 09:45:36;;;;;;;0.40;0.40;;;20.50;99.90;;;;;;5056723;28;20119;-75
2023/05/28 09:48:03;;;;;;;0.20;0.20;;;20.40;99.90;;;;;;5069750;28;20108;-87
2023/05/28 09:50:30;;;;;;;0.10;0.10;;;20.50;99.90;;;;;;5059890;28;20020;-82
2023/05/28 09:52:58;;;;;;;0.30;0.30;;;20.60;99.90;;;;;;5073905;28;20122;-77
2023/05/28 09:55:30;;;;;;;3.53;2.17;;;20.80;99.90;;;;;;5067928;28;20040;-79
2023/05/28 09:58:16;;;;;;;0.10;0.10;;;20.60;99.90;;;;;;5063462;28;20275;-80
2023/05/28 10:00:48;;;;;;;0.57;0.30;;;20.70;99.90;;;;;;5074326;28;20027;-79
2023/05/28 10:03:43;;;;;;;0.10;0.10;;;20.80;99.90;;;;;;5067080;28;20055;-76
2023/05/28 10:06:16;;;;;;;0.47;0.47;;;20.90;99.90;;;;;;5061648;28;20238;-79
2023/05/28 10:08:46;;;;;;;0.30;0.30;;;20.90;99.90;;;;;;5063103;28;20109;-77
2023/05/28 10:11:16;;;;;;;0.10;0.10;;;21.20;99.90;;;;;;5067018;28;20055;-84
2023/05/28 10:13:42;;;;;;;0.10;0.10;;;21.10;99.90;;;;;;5063081;28;20021;-77
2023/05/28 10:16:12;;;;;;;0.20;0.20;;;21.20;99.90;;;;;;5048886;28;20050;-77
2023/05/28 10:18:39;;;;;;;0.40;0.40;;;21.20;99.90;;;;;;5078872;28;20058;-77
2023/05/28 10:21:07;;;;;;;0.10;0.10;;;21.30;99.90;;;;;;5052697;28;20052;-77
2023/05/28 10:23:35;;;;;;;0.20;0.20;;;21.40;99.90;;;;;;5050081;28;20032;-76
2023/05/28 10:26:01;;;;;;;0.13;0.13;;;21.50;99.90;;;;;;5046297;28;20587;-76
2023/05/28 10:28:30;;;;;;;0.20;0.20;;;21.30;99.90;;;;;;5069463;28;20245;-76
2023/05/28 10:31:28;;;;;;;0.10;0.10;;;21.30;99.90;;;;;;5044473;28;20174;-90
2023/05/28 10:33:54;;;;;;;0.10;0.10;;;21.30;99.90;;;;;;5040074;28;20059;-75
2023/05/28 10:36:20;;;;;;;0.10;0.10;;;21.20;99.90;;;;;;5041078;28;20538;-75
2023/05/28 10:39:04;;;;;;;0.30;0.30;;;21.20;99.90;;;;;;5045723;28;20032;-76
2023/05/28 10:41:34;;;;;;;0.20;0.20;;;21.60;99.90;;;;;;5040898;28;20122;-83
2023/05/28 10:44:10;;;;;;;0.52;0.50;;;21.40;99.90;;;;;;5059760;28;20099;-78
2023/05/28 10:46:40;;;;;;;0.10;0.10;;;21.50;99.90;;;;;;5060256;28;20702;-76
2023/05/28 10:49:23;;;;;;;0.52;0.52;;;21.90;99.90;;;;;;5061265;28;20063;-78
2023/05/28 10:52:02;;;;;;;0.17;0.17;;;21.70;99.90;;;;;;5044004;28;20047;-77
2023/05/28 10:55:08;;;;;;;0.20;0.20;;;21.90;99.90;;;;;;5040374;28;20699;-78
2023/05/28 10:57:55;;;;;;;1.30;0.90;;;22.30;99.90;;;;;;5037994;28;20104;-76
2023/05/28 11:00:25;;;;;;;0.65;0.57;;;21.50;99.90;;;;;;5022817;28;20025;-77
2023/05/28 11:02:54;;;;;;;0.52;0.52;;;22.20;99.90;;;;;;5021342;28;20021;-78
2023/05/28 11:05:25;;;;;;;0.35;0.35;;;21.90;99.90;;;;;;5039635;28;20100;-76
2023/05/28 11:07:51;;;;;;;0.65;0.50;;;21.80;99.90;;;;;;5022133;28;20021;-78
2023/05/28 11:10:48;;;;;;;0.10;0.10;;;21.40;99.90;;;;;;5038595;28;20132;-78
2023/05/28 11:13:13;;;;;;;0.10;0.10;;;;;;;;;;5038287;28;20670;-81
2023/05/28 11:15:41;;;;;;;0.80;0.80;;;20.60;99.90;;;;;;5021303;28;20103;-77
2023/05/28 11:18:08;;;;;;;0.20;0.20;;;20.40;99.90;;;;;;5039064;28;20021;-77
2023/05/28 11:20:34;;;;;;;0.10;0.10;;;;;;;;;;5019957;28;20036;-84
2023/05/28 11:23:37;;;;;;;0.20;0.20;;;20.20;99.90;;;;;;5038072;28;20200;-77
2023/05/28 11:26:04;;;;;;;0.10;0.10;;;22.00;99.90;;;;;;5023562;28;20041;-78
2023/05/28 11:28:31;;;;;;;0.13;0.13;;;20.00;99.90;;;;;;5024687;28;20025;-83
2023/05/28 11:31:00;;;;;;;1.75;1.65;;;17.20;99.90;;;;;;5024231;28;20029;-81
2023/05/28 11:33:29;;;;;;;0.30;0.30;;;20.40;99.90;;;;;;5042313;28;20094;-76
2023/05/28 11:36:00;;;;;;;6.65;5.15;;;19.80;99.90;;;;;;5042346;28;20688;-76
2023/05/28 11:38:26;;;;;;;4.30;3.65;;;20.60;99.90;;;;;;5042308;28;20710;-78
2023/05/28 11:40:59;;;;;;;0.20;0.20;;;21.20;99.90;;;;;;5043185;28;20013;-79
2023/05/28 11:43:25;;;;;;;0.10;0.10;;;21.40;99.90;;;;;;5043665;28;20545;-75
2023/05/28 11:45:56;;;;;;;2.15;2.05;;;21.80;99.90;;;;;;5048293;28;20115;-77
2023/05/28 11:48:22;;;;;;;2.30;2.15;;;22.60;99.90;;;;;;5029592;28;20032;-76
2023/05/28 11:50:55;;;;;;;0.10;0.10;;;23.20;99.90;;;;;;5042642;28;20230;-76
2023/05/28 11:53:21;;;;;;;1.52;1.17;;;23.70;99.90;;;;;;5055127;28;20067;-78
2023/05/28 11:55:47;;;;;;;0.10;0.10;;;24.20;99.90;;;;;;5067336;28;20479;-76
2023/05/28 11:58:12;;;;;;;2.53;2.28;;;24.70;99.90;;;;;;5060336;28;20020;-76
2023/05/28 12:00:38;;;;;;;1.10;1.00;;;24.70;99.90;;;;;;5042604;28;20033;-76
2023/05/28 12:03:04;;;;;;;0.20;0.20;;;24.50;99.90;;;;;;5061216;28;20086;-76
2023/05/28 12:05:38;;;;;;;2.50;2.33;;;24.20;99.90;;;;;;5062156;28;20013;-76
2023/05/28 12:08:04;;;;;;;0.10;0.10;;;24.20;99.90;;;;;;5066216;28;20012;-83
2023/05/28 12:10:30;;;;;;;0.25;0.25;;;23.80;99.90;;;;;;5043782;28;20111;-77
2023/05/28 12:12:57;;;;;;;0.35;0.35;;;23.60;99.90;;;;;;5061156;28;20044;-76
2023/05/28 12:15:25;;;;;;;0.20;0.20;;;23.30;99.90;;;;;;5061940;28;20043;-75
2023/05/28 12:17:54;;;;;;;0.10;0.10;;;23.00;99.90;;;;;;5060384;28;20037;-75
2023/05/28 12:20:19;;;;;;;0.10;0.10;;;22.90;99.90;;;;;;5042006;28;20522;-75
2023/05/28 12:22:45;;;;;;;0.10;0.10;;;21.20;99.90;;;;;;5042311;28;20325;-76
2023/05/28 12:25:11;;;;;;;0.10;0.10;;;22.70;99.90;;;;;;5059877;28;20252;-79
2023/05/28 12:27:37;;;;;;;0.10;0.10;;;22.60;99.90;;;;;;5060504;28;20498;-80
2023/05/28 12:30:04;;;;;;;0.10;0.10;;;22.40;99.90;;;;;;5061560;28;20339;-76
2023/05/28 12:32:31;;;;;;;2.92;2.65;;;22.30;99.90;;;;;;5059602;28;20510;-76
2023/05/28 12:34:57;;;;;;;0.10;0.10;;;22.10;99.90;;;;;;5059671;28;20029;-74
2023/05/28 12:37:23;;;;;;;0.38;0.38;;;22.20;99.90;;;;;;5060971;28;20042;-84
2023/05/28 12:39:53;;;;;;;0.10;0.10;;;22.20;99.90;;;;;;5060690;28;20295;-75
2023/05/28 12:42:19;;;;;;;0.20;0.20;;;22.30;99.90;;;;;;5060411;28;20017;-76
2023/05/28 12:44:45;;;;;;;0.43;0.43;;;22.30;99.90;;;;;;5060289;28;20013;-77
2023/05/28 12:47:11;;;;;;;0.20;0.20;;;22.30;99.90;;;;;;5059818;28;20051;-76
2023/05/28 12:49:37;;;;;;;0.30;0.30;;;22.20;99.90;;;;;;5059806;28;20313;-77
2023/05/28 12:52:03;;;;;;;0.10;0.10;;;22.10;99.90;;;;;;5059928;28;20206;-75
2023/05/28 12:54:29;;;;;;;0.20;0.20;;;21.30;99.90;;;;;;5042142;28;20029;-74
2023/05/28 12:56:55;;;;;;;0.10;0.10;;;;;;;;;;5041271;28;20085;-75